sensor_id;sensor_type;location;lat;lon;timestamp;P1;durP1;ratioP1;P2;durP2;ratioP2
22557;SDS011;11445;53.816;8.902;2024-01-10T00:00:14;29.88;;;14.95;;
22557;SDS011;11445;53.816;8.902;2024-01-10T00:02:41;29.30;;;14.52;;
22557;SDS011;11445;53.816;8.902;2024-01-10T00:05:08;29.23;;;14.65;;
22557;SDS011;11445;53.816;8.902;2024-01-10T00:07:35;32.83;;;13.73;;
22557;SDS011;11445;53.816;8.902;2024-01-10T00:10:02;27.25;;;13.70;;
22557;SDS011;11445;53.816;8.902;2024-01-10T00:12:29;26.48;;;13.88;;
22557;SDS011;11445;53.816;8.902;2024-01-10T00:15:02;27.45;;;12.98;;
22557;SDS011;11445;53.816;8.902;2024-01-10T00:17:30;23.75;;;12.40;;
22557;SDS011;11445;53.816;8.902;2024-01-10T00:19:57;27.02;;;12.70;;
22557;SDS011;11445;53.816;8.902;2024-01-10T00:22:24;26.00;;;12.73;;
22557;SDS011;11445;53.816;8.902;2024-01-10T00:24:51;25.27;;;12.43;;
22557;SDS011;11445;53.816;8.902;2024-01-10T00:27:17;22.58;;;12.13;;
22557;SDS011;11445;53.816;8.902;2024-01-10T00:29:44;27.00;;;12.00;;
22557;SDS011;11445;53.816;8.902;2024-01-10T00:32:13;23.48;;;11.32;;
22557;SDS011;11445;53.816;8.902;2024-01-10T00:34:39;25.77;;;12.20;;
22557;SDS011;11445;53.816;8.902;2024-01-10T00:37:06;25.13;;;12.60;;
22557;SDS011;11445;53.816;8.902;2024-01-10T00:39:33;26.52;;;12.50;;
22557;SDS011;11445;53.816;8.902;2024-01-10T00:42:00;26.77;;;13.63;;
22557;SDS011;11445;53.816;8.902;2024-01-10T00:44:27;23.58;;;11.65;;
22557;SDS011;11445;53.816;8.902;2024-01-10T00:46:54;20.88;;;11.15;;
22557;SDS011;11445;53.816;8.902;2024-01-10T00:49:22;27.60;;;13.75;;
22557;SDS011;11445;53.816;8.902;2024-01-10T00:51:49;26.77;;;12.48;;
22557;SDS011;11445;53.816;8.902;2024-01-10T00:54:16;29.67;;;12.45;;
22557;SDS011;11445;53.816;8.902;2024-01-10T00:56:42;26.10;;;12.48;;
22557;SDS011;11445;53.816;8.902;2024-01-10T00:59:09;23.90;;;12.07;;
22557;SDS011;11445;53.816;8.902;2024-01-10T01:01:36;35.88;;;12.93;;
22557;SDS011;11445;53.816;8.902;2024-01-10T01:04:03;28.55;;;14.30;;
22557;SDS011;11445;53.816;8.902;2024-01-10T01:06:31;32.28;;;14.98;;
22557;SDS011;11445;53.816;8.902;2024-01-10T01:08:58;26.92;;;12.90;;
22557;SDS011;11445;53.816;8.902;2024-01-10T01:11:28;30.95;;;13.95;;
22557;SDS011;11445;53.816;8.902;2024-01-10T01:13:55;31.58;;;13.93;;
22557;SDS011;11445;53.816;8.902;2024-01-10T01:16:22;31.30;;;13.02;;
22557;SDS011;11445;53.816;8.902;2024-01-10T01:18:48;23.00;;;11.25;;
22557;SDS011;11445;53.816;8.902;2024-01-10T01:21:15;23.77;;;11.90;;
22557;SDS011;11445;53.816;8.902;2024-01-10T01:23:43;21.23;;;10.73;;
22557;SDS011;11445;53.816;8.902;2024-01-10T01:26:10;23.92;;;10.43;;
22557;SDS011;11445;53.816;8.902;2024-01-10T01:28:38;21.65;;;9.95;;
22557;SDS011;11445;53.816;8.902;2024-01-10T01:31:05;22.90;;;10.55;;
22557;SDS011;11445;53.816;8.902;2024-01-10T01:33:32;21.60;;;9.95;;
22557;SDS011;11445;53.816;8.902;2024-01-10T01:35:59;25.50;;;11.18;;
22557;SDS011;11445;53.816;8.902;2024-01-10T01:38:25;22.88;;;11.60;;
22557;SDS011;11445;53.816;8.902;2024-01-10T01:40:54;22.83;;;11.95;;
22557;SDS011;11445;53.816;8.902;2024-01-10T01:43:21;28.13;;;12.57;;
22557;SDS011;11445;53.816;8.902;2024-01-10T01:45:50;33.90;;;13.82;;
22557;SDS011;11445;53.816;8.902;2024-01-10T01:48:18;27.75;;;13.18;;
22557;SDS011;11445;53.816;8.902;2024-01-10T01:50:46;29.52;;;12.98;;
22557;SDS011;11445;53.816;8.902;2024-01-10T01:53:15;26.73;;;12.77;;
22557;SDS011;11445;53.816;8.902;2024-01-10T01:55:43;28.30;;;12.25;;
22557;SDS011;11445;53.816;8.902;2024-01-10T01:58:12;26.25;;;11.32;;
22557;SDS011;11445;53.816;8.902;2024-01-10T02:00:39;23.50;;;10.65;;
22557;SDS011;11445;53.816;8.902;2024-01-10T02:03:07;20.67;;;11.20;;
22557;SDS011;11445;53.816;8.902;2024-01-10T02:05:35;22.85;;;11.32;;
22557;SDS011;11445;53.816;8.902;2024-01-10T02:08:02;23.70;;;10.70;;
22557;SDS011;11445;53.816;8.902;2024-01-10T02:10:30;23.45;;;11.52;;
22557;SDS011;11445;53.816;8.902;2024-01-10T02:12:57;26.05;;;11.80;;
22557;SDS011;11445;53.816;8.902;2024-01-10T02:15:25;28.42;;;11.48;;
22557;SDS011;11445;53.816;8.902;2024-01-10T02:17:52;25.80;;;11.05;;
22557;SDS011;11445;53.816;8.902;2024-01-10T02:20:19;24.88;;;11.02;;
22557;SDS011;11445;53.816;8.902;2024-01-10T02:22:46;25.42;;;12.43;;
22557;SDS011;11445;53.816;8.902;2024-01-10T02:25:16;21.65;;;10.80;;
22557;SDS011;11445;53.816;8.902;2024-01-10T02:27:44;22.20;;;12.00;;
22557;SDS011;11445;53.816;8.902;2024-01-10T02:30:11;27.55;;;12.80;;
22557;SDS011;11445;53.816;8.902;2024-01-10T02:32:38;29.90;;;12.80;;
22557;SDS011;11445;53.816;8.902;2024-01-10T02:35:05;30.02;;;12.93;;
22557;SDS011;11445;53.816;8.902;2024-01-10T02:37:33;25.35;;;12.45;;
22557;SDS011;11445;53.816;8.902;2024-01-10T02:40:00;27.60;;;12.18;;
22557;SDS011;11445;53.816;8.902;2024-01-10T02:42:28;36.33;;;13.63;;
22557;SDS011;11445;53.816;8.902;2024-01-10T02:44:55;28.20;;;12.93;;
22557;SDS011;11445;53.816;8.902;2024-01-10T02:47:22;38.38;;;14.13;;
22557;SDS011;11445;53.816;8.902;2024-01-10T02:49:49;36.20;;;14.15;;
22557;SDS011;11445;53.816;8.902;2024-01-10T02:52:16;38.58;;;15.70;;
22557;SDS011;11445;53.816;8.902;2024-01-10T02:54:44;36.78;;;15.55;;
22557;SDS011;11445;53.816;8.902;2024-01-10T02:57:11;37.92;;;15.50;;
22557;SDS011;11445;53.816;8.902;2024-01-10T02:59:39;37.22;;;14.27;;
22557;SDS011;11445;53.816;8.902;2024-01-10T03:02:06;34.92;;;14.85;;
22557;SDS011;11445;53.816;8.902;2024-01-10T03:04:33;37.80;;;14.98;;
22557;SDS011;11445;53.816;8.902;2024-01-10T03:07:00;37.88;;;15.32;;
22557;SDS011;11445;53.816;8.902;2024-01-10T03:09:27;43.75;;;15.68;;
22557;SDS011;11445;53.816;8.902;2024-01-10T03:11:54;34.95;;;14.65;;
22557;SDS011;11445;53.816;8.902;2024-01-10T03:14:21;36.60;;;14.80;;
22557;SDS011;11445;53.816;8.902;2024-01-10T03:16:49;34.08;;;14.18;;
22557;SDS011;11445;53.816;8.902;2024-01-10T03:19:16;38.72;;;15.05;;
22557;SDS011;11445;53.816;8.902;2024-01-10T03:21:43;39.97;;;15.15;;
22557;SDS011;11445;53.816;8.902;2024-01-10T03:24:10;37.17;;;15.60;;
22557;SDS011;11445;53.816;8.902;2024-01-10T03:26:36;32.25;;;13.32;;
22557;SDS011;11445;53.816;8.902;2024-01-10T03:29:03;39.28;;;13.88;;
22557;SDS011;11445;53.816;8.902;2024-01-10T03:31:30;35.17;;;14.48;;
22557;SDS011;11445;53.816;8.902;2024-01-10T03:33:59;34.13;;;13.77;;
22557;SDS011;11445;53.816;8.902;2024-01-10T03:36:26;35.30;;;13.63;;
22557;SDS011;11445;53.816;8.902;2024-01-10T03:38:52;34.58;;;13.98;;
22557;SDS011;11445;53.816;8.902;2024-01-10T03:41:20;39.83;;;13.75;;
22557;SDS011;11445;53.816;8.902;2024-01-10T03:43:47;35.00;;;12.93;;
22557;SDS011;11445;53.816;8.902;2024-01-10T03:46:15;35.38;;;14.40;;
22557;SDS011;11445;53.816;8.902;2024-01-10T03:48:43;36.53;;;14.88;;
22557;SDS011;11445;53.816;8.902;2024-01-10T03:51:15;36.03;;;13.40;;
22557;SDS011;11445;53.816;8.902;2024-01-10T03:53:42;35.78;;;13.40;;
22557;SDS011;11445;53.816;8.902;2024-01-10T03:56:09;33.55;;;13.75;;
22557;SDS011;11445;53.816;8.902;2024-01-10T03:58:37;39.20;;;14.95;;
22557;SDS011;11445;53.816;8.902;2024-01-10T04:01:05;39.85;;;14.05;;
22557;SDS011;11445;53.816;8.902;2024-01-10T04:03:32;37.50;;;14.52;;
22557;SDS011;11445;53.816;8.902;2024-01-10T04:05:59;37.03;;;14.60;;
22557;SDS011;11445;53.816;8.902;2024-01-10T04:08:28;38.65;;;15.65;;
22557;SDS011;11445;53.816;8.902;2024-01-10T04:10:55;39.92;;;15.18;;
22557;SDS011;11445;53.816;8.902;2024-01-10T04:13:22;42.65;;;16.35;;
22557;SDS011;11445;53.816;8.902;2024-01-10T04:15:49;34.72;;;14.15;;
22557;SDS011;11445;53.816;8.902;2024-01-10T04:18:16;39.92;;;15.52;;
22557;SDS011;11445;53.816;8.902;2024-01-10T04:20:43;37.97;;;15.82;;
22557;SDS011;11445;53.816;8.902;2024-01-10T04:23:10;37.22;;;14.93;;
22557;SDS011;11445;53.816;8.902;2024-01-10T04:25:38;36.47;;;15.25;;
22557;SDS011;11445;53.816;8.902;2024-01-10T04:28:05;41.17;;;15.57;;
22557;SDS011;11445;53.816;8.902;2024-01-10T04:30:32;36.67;;;15.07;;
22557;SDS011;11445;53.816;8.902;2024-01-10T04:32:59;36.15;;;14.93;;
22557;SDS011;11445;53.816;8.902;2024-01-10T04:35:26;34.13;;;14.30;;
22557;SDS011;11445;53.816;8.902;2024-01-10T04:37:52;32.63;;;13.95;;
22557;SDS011;11445;53.816;8.902;2024-01-10T04:40:19;36.10;;;13.98;;
22557;SDS011;11445;53.816;8.902;2024-01-10T04:42:47;37.15;;;15.85;;
22557;SDS011;11445;53.816;8.902;2024-01-10T04:45:14;35.20;;;15.07;;
22557;SDS011;11445;53.816;8.902;2024-01-10T04:47:41;33.67;;;15.50;;
22557;SDS011;11445;53.816;8.902;2024-01-10T04:50:10;35.47;;;14.48;;
22557;SDS011;11445;53.816;8.902;2024-01-10T04:52:36;34.33;;;14.57;;
22557;SDS011;11445;53.816;8.902;2024-01-10T04:55:04;38.38;;;15.27;;
22557;SDS011;11445;53.816;8.902;2024-01-10T04:57:33;38.40;;;14.30;;
22557;SDS011;11445;53.816;8.902;2024-01-10T05:00:01;33.78;;;13.75;;
22557;SDS011;11445;53.816;8.902;2024-01-10T05:02:28;32.53;;;14.30;;
22557;SDS011;11445;53.816;8.902;2024-01-10T05:04:55;30.30;;;13.50;;
22557;SDS011;11445;53.816;8.902;2024-01-10T05:07:22;34.03;;;13.93;;
22557;SDS011;11445;53.816;8.902;2024-01-10T05:09:48;35.60;;;14.82;;
22557;SDS011;11445;53.816;8.902;2024-01-10T05:12:15;34.05;;;15.32;;
22557;SDS011;11445;53.816;8.902;2024-01-10T05:14:43;34.28;;;14.50;;
22557;SDS011;11445;53.816;8.902;2024-01-10T05:17:11;42.40;;;17.23;;
22557;SDS011;11445;53.816;8.902;2024-01-10T05:19:38;35.67;;;15.07;;
22557;SDS011;11445;53.816;8.902;2024-01-10T05:22:05;33.20;;;14.38;;
22557;SDS011;11445;53.816;8.902;2024-01-10T05:24:31;34.30;;;13.90;;
22557;SDS011;11445;53.816;8.902;2024-01-10T05:26:58;36.60;;;14.30;;
22557;SDS011;11445;53.816;8.902;2024-01-10T05:29:25;33.72;;;14.05;;
22557;SDS011;11445;53.816;8.902;2024-01-10T05:31:52;36.25;;;14.88;;
22557;SDS011;11445;53.816;8.902;2024-01-10T05:34:21;42.80;;;15.80;;
22557;SDS011;11445;53.816;8.902;2024-01-10T05:36:47;38.90;;;15.85;;
22557;SDS011;11445;53.816;8.902;2024-01-10T05:39:14;38.60;;;16.90;;
22557;SDS011;11445;53.816;8.902;2024-01-10T05:41:41;42.38;;;16.73;;
22557;SDS011;11445;53.816;8.902;2024-01-10T05:44:09;40.03;;;15.85;;
22557;SDS011;11445;53.816;8.902;2024-01-10T05:46:36;38.05;;;16.42;;
22557;SDS011;11445;53.816;8.902;2024-01-10T05:49:02;38.83;;;16.77;;
22557;SDS011;11445;53.816;8.902;2024-01-10T05:51:31;37.22;;;16.40;;
22557;SDS011;11445;53.816;8.902;2024-01-10T05:53:58;34.78;;;14.73;;
22557;SDS011;11445;53.816;8.902;2024-01-10T05:56:25;34.15;;;15.13;;
22557;SDS011;11445;53.816;8.902;2024-01-10T05:58:52;28.35;;;13.13;;
22557;SDS011;11445;53.816;8.902;2024-01-10T06:01:19;30.70;;;14.02;;
22557;SDS011;11445;53.816;8.902;2024-01-10T06:03:46;29.35;;;14.35;;
22557;SDS011;11445;53.816;8.902;2024-01-10T06:06:12;35.95;;;13.73;;
22557;SDS011;11445;53.816;8.902;2024-01-10T06:08:40;31.85;;;15.18;;
22557;SDS011;11445;53.816;8.902;2024-01-10T06:11:07;28.50;;;13.02;;
22557;SDS011;11445;53.816;8.902;2024-01-10T06:13:34;28.13;;;13.32;;
22557;SDS011;11445;53.816;8.902;2024-01-10T06:16:01;34.33;;;15.32;;
22557;SDS011;11445;53.816;8.902;2024-01-10T06:18:29;37.03;;;15.40;;
22557;SDS011;11445;53.816;8.902;2024-01-10T06:20:55;32.10;;;14.65;;
22557;SDS011;11445;53.816;8.902;2024-01-10T06:23:23;37.80;;;15.77;;
22557;SDS011;11445;53.816;8.902;2024-01-10T06:25:51;37.42;;;16.60;;
22557;SDS011;11445;53.816;8.902;2024-01-10T06:28:19;37.67;;;16.58;;
22557;SDS011;11445;53.816;8.902;2024-01-10T06:30:46;41.70;;;16.42;;
22557;SDS011;11445;53.816;8.902;2024-01-10T06:33:13;32.95;;;14.30;;
22557;SDS011;11445;53.816;8.902;2024-01-10T06:35:40;34.40;;;14.80;;
22557;SDS011;11445;53.816;8.902;2024-01-10T06:38:08;32.30;;;13.13;;
22557;SDS011;11445;53.816;8.902;2024-01-10T06:40:35;18.90;;;9.15;;
22557;SDS011;11445;53.816;8.902;2024-01-10T06:43:04;19.08;;;7.18;;
22557;SDS011;11445;53.816;8.902;2024-01-10T06:45:33;22.70;;;8.43;;
22557;SDS011;11445;53.816;8.902;2024-01-10T06:48:00;20.00;;;8.63;;
22557;SDS011;11445;53.816;8.902;2024-01-10T06:50:27;20.38;;;8.30;;
22557;SDS011;11445;53.816;8.902;2024-01-10T06:52:55;20.08;;;8.65;;
22557;SDS011;11445;53.816;8.902;2024-01-10T06:55:22;18.90;;;8.43;;
22557;SDS011;11445;53.816;8.902;2024-01-10T06:57:51;19.42;;;8.43;;
22557;SDS011;11445;53.816;8.902;2024-01-10T07:00:21;27.70;;;9.00;;
22557;SDS011;11445;53.816;8.902;2024-01-10T07:02:48;18.33;;;8.10;;
22557;SDS011;11445;53.816;8.902;2024-01-10T07:05:15;19.30;;;9.07;;
22557;SDS011;11445;53.816;8.902;2024-01-10T07:07:42;23.77;;;9.18;;
22557;SDS011;11445;53.816;8.902;2024-01-10T07:10:09;21.30;;;8.75;;
22557;SDS011;11445;53.816;8.902;2024-01-10T07:12:36;25.60;;;9.05;;
22557;SDS011;11445;53.816;8.902;2024-01-10T07:15:04;21.15;;;9.07;;
22557;SDS011;11445;53.816;8.902;2024-01-10T07:17:33;25.40;;;9.02;;
22557;SDS011;11445;53.816;8.902;2024-01-10T07:20:00;25.63;;;9.32;;
22557;SDS011;11445;53.816;8.902;2024-01-10T07:22:28;22.38;;;9.60;;
22557;SDS011;11445;53.816;8.902;2024-01-10T07:24:54;25.63;;;10.25;;
22557;SDS011;11445;53.816;8.902;2024-01-10T07:27:22;21.58;;;9.45;;
22557;SDS011;11445;53.816;8.902;2024-01-10T07:29:49;27.48;;;10.07;;
22557;SDS011;11445;53.816;8.902;2024-01-10T07:32:17;26.27;;;10.20;;
22557;SDS011;11445;53.816;8.902;2024-01-10T07:34:46;28.38;;;10.65;;
22557;SDS011;11445;53.816;8.902;2024-01-10T07:37:13;27.58;;;11.15;;
22557;SDS011;11445;53.816;8.902;2024-01-10T07:39:41;26.98;;;10.63;;
22557;SDS011;11445;53.816;8.902;2024-01-10T07:42:09;23.65;;;10.25;;
22557;SDS011;11445;53.816;8.902;2024-01-10T07:44:35;24.23;;;10.27;;
22557;SDS011;11445;53.816;8.902;2024-01-10T07:47:03;21.83;;;9.40;;
22557;SDS011;11445;53.816;8.902;2024-01-10T07:49:30;24.88;;;9.45;;
22557;SDS011;11445;53.816;8.902;2024-01-10T07:51:58;26.83;;;9.88;;
22557;SDS011;11445;53.816;8.902;2024-01-10T07:54:25;26.25;;;10.30;;
22557;SDS011;11445;53.816;8.902;2024-01-10T07:56:52;26.83;;;9.98;;
22557;SDS011;11445;53.816;8.902;2024-01-10T07:59:19;23.98;;;9.95;;
22557;SDS011;11445;53.816;8.902;2024-01-10T08:01:54;29.88;;;10.65;;
22557;SDS011;11445;53.816;8.902;2024-01-10T08:04:23;21.98;;;8.90;;
22557;SDS011;11445;53.816;8.902;2024-01-10T08:06:50;22.92;;;8.73;;
22557;SDS011;11445;53.816;8.902;2024-01-10T08:09:19;26.95;;;8.82;;
22557;SDS011;11445;53.816;8.902;2024-01-10T08:11:46;13.65;;;6.95;;
22557;SDS011;11445;53.816;8.902;2024-01-10T08:14:13;15.98;;;7.53;;
22557;SDS011;11445;53.816;8.902;2024-01-10T08:16:41;16.27;;;7.57;;
22557;SDS011;11445;53.816;8.902;2024-01-10T08:19:09;14.25;;;7.30;;
22557;SDS011;11445;53.816;8.902;2024-01-10T08:21:37;18.45;;;8.18;;
22557;SDS011;11445;53.816;8.902;2024-01-10T08:24:04;20.40;;;7.88;;
22557;SDS011;11445;53.816;8.902;2024-01-10T08:26:33;26.90;;;9.48;;
22557;SDS011;11445;53.816;8.902;2024-01-10T08:29:00;20.60;;;8.93;;
22557;SDS011;11445;53.816;8.902;2024-01-10T08:31:27;23.70;;;9.63;;
22557;SDS011;11445;53.816;8.902;2024-01-10T08:33:54;28.83;;;9.95;;
22557;SDS011;11445;53.816;8.902;2024-01-10T08:36:21;26.88;;;10.80;;
22557;SDS011;11445;53.816;8.902;2024-01-10T08:38:49;25.60;;;9.45;;
22557;SDS011;11445;53.816;8.902;2024-01-10T08:41:16;27.73;;;10.52;;
22557;SDS011;11445;53.816;8.902;2024-01-10T08:43:45;30.58;;;10.88;;
22557;SDS011;11445;53.816;8.902;2024-01-10T08:46:12;24.83;;;9.93;;
22557;SDS011;11445;53.816;8.902;2024-01-10T08:48:39;29.40;;;9.80;;
22557;SDS011;11445;53.816;8.902;2024-01-10T08:51:07;24.10;;;10.73;;
22557;SDS011;11445;53.816;8.902;2024-01-10T08:53:35;23.92;;;10.43;;
22557;SDS011;11445;53.816;8.902;2024-01-10T08:56:02;19.92;;;9.45;;
22557;SDS011;11445;53.816;8.902;2024-01-10T08:58:29;22.27;;;9.50;;
22557;SDS011;11445;53.816;8.902;2024-01-10T09:00:57;25.95;;;9.82;;
22557;SDS011;11445;53.816;8.902;2024-01-10T09:03:24;26.77;;;10.70;;
22557;SDS011;11445;53.816;8.902;2024-01-10T09:05:51;23.42;;;11.30;;
22557;SDS011;11445;53.816;8.902;2024-01-10T09:08:17;21.00;;;9.13;;
22557;SDS011;11445;53.816;8.902;2024-01-10T09:10:44;22.13;;;10.43;;
22557;SDS011;11445;53.816;8.902;2024-01-10T09:13:11;24.25;;;10.52;;
22557;SDS011;11445;53.816;8.902;2024-01-10T09:15:38;21.25;;;9.85;;
22557;SDS011;11445;53.816;8.902;2024-01-10T09:18:07;23.55;;;10.25;;
22557;SDS011;11445;53.816;8.902;2024-01-10T09:20:34;28.02;;;11.15;;
22557;SDS011;11445;53.816;8.902;2024-01-10T09:23:01;26.45;;;12.48;;
22557;SDS011;11445;53.816;8.902;2024-01-10T09:25:28;30.95;;;12.43;;
22557;SDS011;11445;53.816;8.902;2024-01-10T09:27:55;25.85;;;11.60;;
22557;SDS011;11445;53.816;8.902;2024-01-10T09:30:22;30.05;;;11.77;;
22557;SDS011;11445;53.816;8.902;2024-01-10T09:32:49;27.80;;;12.38;;
22557;SDS011;11445;53.816;8.902;2024-01-10T09:35:17;27.02;;;12.82;;
22557;SDS011;11445;53.816;8.902;2024-01-10T09:37:44;30.55;;;14.18;;
22557;SDS011;11445;53.816;8.902;2024-01-10T09:40:12;32.30;;;14.68;;
22557;SDS011;11445;53.816;8.902;2024-01-10T09:42:41;35.80;;;15.50;;
22557;SDS011;11445;53.816;8.902;2024-01-10T09:45:10;40.45;;;16.88;;
22557;SDS011;11445;53.816;8.902;2024-01-10T09:47:38;35.65;;;15.48;;
22557;SDS011;11445;53.816;8.902;2024-01-10T09:50:08;38.70;;;16.33;;
22557;SDS011;11445;53.816;8.902;2024-01-10T09:52:41;34.17;;;16.13;;
22557;SDS011;11445;53.816;8.902;2024-01-10T09:55:13;38.78;;;14.43;;
22557;SDS011;11445;53.816;8.902;2024-01-10T09:57:41;27.25;;;12.05;;
22557;SDS011;11445;53.816;8.902;2024-01-10T10:00:08;29.40;;;12.57;;
22557;SDS011;11445;53.816;8.902;2024-01-10T10:02:38;28.70;;;12.88;;
22557;SDS011;11445;53.816;8.902;2024-01-10T10:05:08;29.08;;;12.65;;
22557;SDS011;11445;53.816;8.902;2024-01-10T10:07:45;27.70;;;13.05;;
22557;SDS011;11445;53.816;8.902;2024-01-10T10:10:13;26.50;;;11.73;;
22557;SDS011;11445;53.816;8.902;2024-01-10T10:12:44;29.58;;;11.93;;
22557;SDS011;11445;53.816;8.902;2024-01-10T10:15:12;24.52;;;12.60;;
22557;SDS011;11445;53.816;8.902;2024-01-10T10:17:41;26.83;;;12.25;;
22557;SDS011;11445;53.816;8.902;2024-01-10T10:20:13;30.67;;;12.82;;
22557;SDS011;11445;53.816;8.902;2024-01-10T10:22:57;29.48;;;12.23;;
22557;SDS011;11445;53.816;8.902;2024-01-10T10:25:26;28.20;;;12.23;;
22557;SDS011;11445;53.816;8.902;2024-01-10T10:27:54;32.25;;;13.05;;
22557;SDS011;11445;53.816;8.902;2024-01-10T10:30:21;31.55;;;14.27;;
22557;SDS011;11445;53.816;8.902;2024-01-10T10:32:48;31.80;;;15.13;;
22557;SDS011;11445;53.816;8.902;2024-01-10T10:35:15;36.40;;;14.27;;
22557;SDS011;11445;53.816;8.902;2024-01-10T10:37:42;28.95;;;13.00;;
22557;SDS011;11445;53.816;8.902;2024-01-10T10:40:11;27.67;;;12.70;;
22557;SDS011;11445;53.816;8.902;2024-01-10T10:42:38;24.25;;;12.57;;
22557;SDS011;11445;53.816;8.902;2024-01-10T10:45:14;29.10;;;13.93;;
22557;SDS011;11445;53.816;8.902;2024-01-10T10:47:42;27.85;;;14.38;;
22557;SDS011;11445;53.816;8.902;2024-01-10T10:50:12;33.22;;;14.57;;
22557;SDS011;11445;53.816;8.902;2024-01-10T10:52:45;30.02;;;15.07;;
22557;SDS011;11445;53.816;8.902;2024-01-10T10:55:14;33.65;;;14.95;;
22557;SDS011;11445;53.816;8.902;2024-01-10T10:57:43;30.45;;;14.55;;
22557;SDS011;11445;53.816;8.902;2024-01-10T11:00:11;30.70;;;14.85;;
22557;SDS011;11445;53.816;8.902;2024-01-10T11:02:41;28.85;;;14.25;;
22557;SDS011;11445;53.816;8.902;2024-01-10T11:05:09;31.90;;;15.48;;
22557;SDS011;11445;53.816;8.902;2024-01-10T11:07:36;28.83;;;14.88;;
22557;SDS011;11445;53.816;8.902;2024-01-10T11:10:04;30.63;;;14.82;;
22557;SDS011;11445;53.816;8.902;2024-01-10T11:12:43;27.02;;;14.75;;
22557;SDS011;11445;53.816;8.902;2024-01-10T11:15:24;31.45;;;15.52;;
22557;SDS011;11445;53.816;8.902;2024-01-10T11:18:10;27.02;;;14.68;;
22557;SDS011;11445;53.816;8.902;2024-01-10T11:20:53;26.67;;;13.45;;
22557;SDS011;11445;53.816;8.902;2024-01-10T11:26:09;24.33;;;14.20;;
22557;SDS011;11445;53.816;8.902;2024-01-10T11:28:39;26.98;;;13.90;;
22557;SDS011;11445;53.816;8.902;2024-01-10T11:31:07;28.63;;;14.73;;
22557;SDS011;11445;53.816;8.902;2024-01-10T11:33:34;29.40;;;14.93;;
22557;SDS011;11445;53.816;8.902;2024-01-10T11:36:08;27.40;;;14.38;;
22557;SDS011;11445;53.816;8.902;2024-01-10T11:38:39;32.38;;;15.30;;
22557;SDS011;11445;53.816;8.902;2024-01-10T11:41:09;26.17;;;14.13;;
22557;SDS011;11445;53.816;8.902;2024-01-10T11:43:37;27.25;;;14.85;;
22557;SDS011;11445;53.816;8.902;2024-01-10T11:46:05;27.63;;;14.70;;
22557;SDS011;11445;53.816;8.902;2024-01-10T11:48:33;30.92;;;15.38;;
22557;SDS011;11445;53.816;8.902;2024-01-10T11:51:00;34.00;;;15.10;;
22557;SDS011;11445;53.816;8.902;2024-01-10T11:53:41;26.85;;;14.88;;
22557;SDS011;11445;53.816;8.902;2024-01-10T11:56:11;28.85;;;15.48;;
22557;SDS011;11445;53.816;8.902;2024-01-10T12:01:31;25.48;;;13.88;;
22557;SDS011;11445;53.816;8.902;2024-01-10T12:03:59;25.10;;;13.65;;
22557;SDS011;11445;53.816;8.902;2024-01-10T12:06:26;23.60;;;13.25;;
22557;SDS011;11445;53.816;8.902;2024-01-10T12:08:53;30.40;;;13.50;;
22557;SDS011;11445;53.816;8.902;2024-01-10T12:11:20;24.05;;;13.50;;
22557;SDS011;11445;53.816;8.902;2024-01-10T12:13:47;22.65;;;13.07;;
22557;SDS011;11445;53.816;8.902;2024-01-10T12:16:14;24.63;;;13.40;;
22557;SDS011;11445;53.816;8.902;2024-01-10T12:18:43;21.98;;;12.60;;
22557;SDS011;11445;53.816;8.902;2024-01-10T12:21:10;24.48;;;13.43;;
22557;SDS011;11445;53.816;8.902;2024-01-10T12:23:38;23.23;;;11.75;;
22557;SDS011;11445;53.816;8.902;2024-01-10T12:26:07;25.02;;;13.68;;
22557;SDS011;11445;53.816;8.902;2024-01-10T12:28:37;21.60;;;12.38;;
22557;SDS011;11445;53.816;8.902;2024-01-10T12:31:04;22.45;;;13.38;;
22557;SDS011;11445;53.816;8.902;2024-01-10T12:33:32;26.20;;;13.13;;
22557;SDS011;11445;53.816;8.902;2024-01-10T12:36:08;21.63;;;12.50;;
22557;SDS011;11445;53.816;8.902;2024-01-10T12:38:36;23.30;;;12.90;;
22557;SDS011;11445;53.816;8.902;2024-01-10T12:41:04;23.98;;;13.30;;
22557;SDS011;11445;53.816;8.902;2024-01-10T12:43:34;26.13;;;13.45;;
22557;SDS011;11445;53.816;8.902;2024-01-10T12:46:04;24.88;;;12.95;;
22557;SDS011;11445;53.816;8.902;2024-01-10T12:48:32;23.35;;;13.23;;
22557;SDS011;11445;53.816;8.902;2024-01-10T12:51:01;26.80;;;14.07;;
22557;SDS011;11445;53.816;8.902;2024-01-10T12:53:32;23.23;;;12.88;;
22557;SDS011;11445;53.816;8.902;2024-01-10T12:56:01;20.80;;;11.80;;
22557;SDS011;11445;53.816;8.902;2024-01-10T12:58:30;22.77;;;12.50;;
22557;SDS011;11445;53.816;8.902;2024-01-10T13:00:57;21.75;;;13.05;;
22557;SDS011;11445;53.816;8.902;2024-01-10T13:03:24;23.17;;;13.15;;
22557;SDS011;11445;53.816;8.902;2024-01-10T13:05:51;22.00;;;12.45;;
22557;SDS011;11445;53.816;8.902;2024-01-10T13:08:18;24.58;;;13.40;;
22557;SDS011;11445;53.816;8.902;2024-01-10T13:10:47;24.60;;;12.93;;
22557;SDS011;11445;53.816;8.902;2024-01-10T13:13:14;22.98;;;12.32;;
22557;SDS011;11445;53.816;8.902;2024-01-10T13:15:42;28.15;;;13.23;;
22557;SDS011;11445;53.816;8.902;2024-01-10T13:18:09;24.92;;;13.55;;
22557;SDS011;11445;53.816;8.902;2024-01-10T13:20:36;26.90;;;12.88;;
22557;SDS011;11445;53.816;8.902;2024-01-10T13:23:04;25.45;;;13.10;;
22557;SDS011;11445;53.816;8.902;2024-01-10T13:25:31;23.33;;;12.68;;
22557;SDS011;11445;53.816;8.902;2024-01-10T13:27:59;23.77;;;12.45;;
22557;SDS011;11445;53.816;8.902;2024-01-10T13:30:26;24.38;;;14.15;;
22557;SDS011;11445;53.816;8.902;2024-01-10T13:32:53;25.38;;;14.60;;
22557;SDS011;11445;53.816;8.902;2024-01-10T13:35:20;25.40;;;13.75;;
22557;SDS011;11445;53.816;8.902;2024-01-10T13:37:47;25.73;;;12.73;;
22557;SDS011;11445;53.816;8.902;2024-01-10T13:40:14;20.92;;;12.75;;
22557;SDS011;11445;53.816;8.902;2024-01-10T13:42:42;21.55;;;11.95;;
22557;SDS011;11445;53.816;8.902;2024-01-10T13:45:10;24.27;;;14.23;;
22557;SDS011;11445;53.816;8.902;2024-01-10T13:47:37;23.77;;;13.45;;
22557;SDS011;11445;53.816;8.902;2024-01-10T13:50:06;25.88;;;12.63;;
22557;SDS011;11445;53.816;8.902;2024-01-10T13:52:34;25.30;;;14.05;;
22557;SDS011;11445;53.816;8.902;2024-01-10T13:55:02;27.30;;;14.45;;
22557;SDS011;11445;53.816;8.902;2024-01-10T13:57:29;23.23;;;13.98;;
22557;SDS011;11445;53.816;8.902;2024-01-10T13:59:57;28.10;;;12.88;;
22557;SDS011;11445;53.816;8.902;2024-01-10T14:02:26;22.75;;;13.25;;
22557;SDS011;11445;53.816;8.902;2024-01-10T14:04:53;22.02;;;13.05;;
22557;SDS011;11445;53.816;8.902;2024-01-10T14:07:22;23.25;;;12.93;;
22557;SDS011;11445;53.816;8.902;2024-01-10T14:09:49;23.05;;;12.52;;
22557;SDS011;11445;53.816;8.902;2024-01-10T14:12:16;27.02;;;12.80;;
22557;SDS011;11445;53.816;8.902;2024-01-10T14:14:42;25.67;;;13.40;;
22557;SDS011;11445;53.816;8.902;2024-01-10T14:17:10;24.75;;;13.55;;
22557;SDS011;11445;53.816;8.902;2024-01-10T14:19:38;26.50;;;13.30;;
22557;SDS011;11445;53.816;8.902;2024-01-10T14:22:05;29.27;;;12.40;;
22557;SDS011;11445;53.816;8.902;2024-01-10T14:24:32;22.65;;;12.90;;
22557;SDS011;11445;53.816;8.902;2024-01-10T14:26:59;27.98;;;13.45;;
22557;SDS011;11445;53.816;8.902;2024-01-10T14:29:26;23.88;;;12.93;;
22557;SDS011;11445;53.816;8.902;2024-01-10T14:31:53;21.25;;;12.38;;